Loughman, Florida
Current Conditions -  °F | °C
As of 10:50 AM on Thursday 27 Nov 2014 (Local Time) from KISM Reporting Station
Clear Clear  
Wind Chill: 66°   Ceiling: Unl
Heat Index: 66°   Visibility: 10mi
Dew Point: 52°   Wind: 7mph
Humidity: 60%   Direction: 270°W
Pressure: 30.27"   Gusts: NA
Location:  28.24°N, 81.57°W
Report Text: KISM 271550Z 27006KT 10SM SKC 19/11 A3027
Loading
Personal Weather Stations






























Interactive Weather Map New forecast layout! Learn more

10-Day Weather Forecast

Advertisements
Track Severe Weather on mobile